createdAt,value
2019-02-11T00:01:25.550Z,88.00
2019-02-11T00:03:59.733Z,92.10
2019-02-11T00:06:28.239Z,84.17
2019-02-11T00:08:58.700Z,89.10
2019-02-11T00:11:29.141Z,84.03
2019-02-11T00:14:00.770Z,85.37
2019-02-11T00:16:31.172Z,85.73
2019-02-11T00:19:01.673Z,93.73
2019-02-11T00:21:32.136Z,87.07
2019-02-11T00:24:02.628Z,80.37
2019-02-11T00:26:33.088Z,83.10
2019-02-11T00:29:06.452Z,91.47
2019-02-11T00:31:36.904Z,83.67
2019-02-11T00:34:07.365Z,90.80
2019-02-11T00:36:37.860Z,86.53
2019-02-11T00:39:08.850Z,89.87
2019-02-11T00:41:39.310Z,89.70
2019-02-11T00:44:09.805Z,87.43
2019-02-11T00:46:40.271Z,89.67
2019-02-11T00:49:10.816Z,83.53
2019-02-11T00:51:41.326Z,90.00
2019-02-11T00:54:11.801Z,90.00
2019-02-11T00:56:42.250Z,88.80
2019-02-11T00:59:12.724Z,89.80
2019-02-11T01:01:43.216Z,91.43
2019-02-11T01:04:13.708Z,96.17
2019-02-11T01:06:44.173Z,88.90
2019-02-11T01:09:14.680Z,88.60
2019-02-11T01:11:45.138Z,95.57
2019-02-11T01:14:15.604Z,95.17
2019-02-11T01:16:46.097Z,96.63
2019-02-11T01:19:16.587Z,91.47
2019-02-11T01:21:47.088Z,93.27
2019-02-11T01:24:17.544Z,93.13
2019-02-11T01:26:48.041Z,97.37
2019-02-11T01:29:18.496Z,94.07
2019-02-11T01:31:49.010Z,92.63
2019-02-11T01:34:19.519Z,93.87
2019-02-11T01:36:50.027Z,94.63
2019-02-11T01:39:20.491Z,91.23
2019-02-11T01:41:50.952Z,96.27
2019-02-11T01:44:21.448Z,91.53
2019-02-11T01:46:51.909Z,101.43
2019-02-11T01:49:22.417Z,114.80
2019-02-11T01:51:52.882Z,100.30
2019-02-11T01:54:23.359Z,100.13
2019-02-11T01:56:53.863Z,96.40
2019-02-11T01:59:24.377Z,102.97
2019-02-11T02:01:54.870Z,100.23
2019-02-11T02:04:25.332Z,107.23
2019-02-11T02:06:55.821Z,102.20
2019-02-11T02:09:26.383Z,104.70
2019-02-11T02:11:56.879Z,93.33
2019-02-11T02:14:27.328Z,88.10
2019-02-11T02:16:57.869Z,93.23
2019-02-11T02:19:28.356Z,87.27
2019-02-11T02:21:58.826Z,87.90
2019-02-11T02:24:29.339Z,85.87
2019-02-11T02:26:59.794Z,78.53
2019-02-11T02:29:30.301Z,74.27
2019-02-11T02:32:00.760Z,74.77
2019-02-11T02:34:31.249Z,73.23
2019-02-11T02:37:01.711Z,74.23
2019-02-11T02:39:32.169Z,70.60
2019-02-11T02:42:02.672Z,76.83
2019-02-11T02:44:33.249Z,75.33
2019-02-11T02:47:03.746Z,79.17
2019-02-11T02:49:34.277Z,84.43
2019-02-11T02:52:04.786Z,86.17
2019-02-11T02:54:35.261Z,89.53
2019-02-11T02:57:05.764Z,93.93
2019-02-11T02:59:36.267Z,101.50
2019-02-11T03:02:06.834Z,100.60
2019-02-11T03:04:37.415Z,76.77
2019-02-11T03:07:07.562Z,90.77
2019-02-11T03:09:38.067Z,97.40
2019-02-11T03:12:08.560Z,99.07
2019-02-11T03:14:39.032Z,87.80
2019-02-11T03:17:09.523Z,106.97
2019-02-11T03:19:39.991Z,106.30
2019-02-11T03:22:10.482Z,97.10
2019-02-11T03:24:40.944Z,100.27
2019-02-11T03:27:11.513Z,108.13
2019-02-11T03:29:42.005Z,105.60
2019-02-11T03:32:12.495Z,90.43
2019-02-11T03:34:42.990Z,103.53
2019-02-11T03:37:13.492Z,122.57
2019-02-11T03:39:43.941Z,104.50
2019-02-11T03:42:14.438Z,103.97
2019-02-11T03:44:44.915Z,96.97
2019-02-11T03:47:15.414Z,94.17
2019-02-11T03:49:45.867Z,91.13
2019-02-11T03:52:16.466Z,88.73
2019-02-11T03:54:46.972Z,80.03
2019-02-11T03:57:17.436Z,77.40
2019-02-11T03:59:47.891Z,76.60
2019-02-11T04:02:18.393Z,66.23
2019-02-11T04:04:48.885Z,74.33
2019-02-11T04:07:19.336Z,70.90
2019-02-11T04:09:49.835Z,74.07
2019-02-11T04:12:20.300Z,77.53
2019-02-11T04:14:50.799Z,78.77
2019-02-11T04:17:21.295Z,71.87
2019-02-11T04:19:51.814Z,70.03
2019-02-11T04:22:22.328Z,73.80
2019-02-11T04:24:52.791Z,69.30
2019-02-11T04:27:23.279Z,66.53
2019-02-11T04:29:53.732Z,71.50
2019-02-11T04:32:24.207Z,67.40
2019-02-11T04:34:54.710Z,66.43
2019-02-11T04:37:25.179Z,73.47
2019-02-11T04:39:55.690Z,61.90
2019-02-11T04:42:26.153Z,53.37
2019-02-11T04:44:56.615Z,48.00
2019-02-11T04:47:27.108Z,52.20
2019-02-11T04:49:57.613Z,53.10
2019-02-11T04:52:28.232Z,56.63
2019-02-11T04:54:58.736Z,54.03
2019-02-11T04:57:29.203Z,56.73
2019-02-11T04:59:59.723Z,55.17
2019-02-11T05:02:30.220Z,64.53
2019-02-11T05:05:00.731Z,59.43
2019-02-11T05:07:31.185Z,63.63
2019-02-11T05:10:01.671Z,59.63
2019-02-11T05:12:32.120Z,68.33
2019-02-11T05:15:02.601Z,74.97
2019-02-11T05:17:33.096Z,68.50
2019-02-11T05:20:03.562Z,73.83
2019-02-11T05:22:34.070Z,70.30
2019-02-11T05:25:04.681Z,72.37
2019-02-11T05:27:35.171Z,79.80
2019-02-11T05:30:06.674Z,87.67
2019-02-11T05:32:37.240Z,93.33
2019-02-11T05:35:07.900Z,102.23
2019-02-11T05:37:38.486Z,114.50
2019-02-11T05:40:10.301Z,113.93
2019-02-11T05:42:40.754Z,111.27
2019-02-11T05:45:11.450Z,111.53
2019-02-11T05:47:41.916Z,106.00
2019-02-11T05:50:12.558Z,120.23
2019-02-11T05:52:43.089Z,102.27
2019-02-11T05:55:13.681Z,104.43
2019-02-11T05:57:44.177Z,107.53
2019-02-11T06:00:16.577Z,107.23
2019-02-11T06:02:47.119Z,110.77
2019-02-11T06:05:17.586Z,91.83
2019-02-11T06:07:48.076Z,94.50
2019-02-11T06:10:18.590Z,93.10
2019-02-11T06:12:51.576Z,94.10
2019-02-11T06:15:22.058Z,89.70
2019-02-11T06:17:52.609Z,97.00
2019-02-11T06:20:23.228Z,95.27
2019-02-11T06:22:53.689Z,99.90
2019-02-11T06:25:24.291Z,104.63
2019-02-11T06:27:54.871Z,119.60
2019-02-11T06:30:25.512Z,108.73
2019-02-11T06:32:56.101Z,99.07
2019-02-11T06:35:26.616Z,102.70
2019-02-11T06:37:57.137Z,103.23
2019-02-11T06:40:27.615Z,103.23
2019-02-11T06:42:58.123Z,102.57
2019-02-11T06:45:28.710Z,110.07
2019-02-11T06:47:59.208Z,96.37
2019-02-11T06:50:29.691Z,99.50
2019-02-11T06:53:00.163Z,103.30
2019-02-11T06:55:30.673Z,100.47
2019-02-11T06:58:09.772Z,95.73
2019-02-11T07:00:40.209Z,99.70
2019-02-11T07:03:10.691Z,102.57
2019-02-11T07:05:41.227Z,96.83
2019-02-11T07:08:11.812Z,97.00
2019-02-11T07:10:42.295Z,94.80
2019-02-11T07:13:12.804Z,95.40
2019-02-11T07:15:43.288Z,101.87
2019-02-11T07:18:13.776Z,110.33
2019-02-11T07:20:44.284Z,105.50
2019-02-11T07:23:14.781Z,136.87
2019-02-11T07:25:45.300Z,120.57
2019-02-11T07:28:15.785Z,111.67
2019-02-11T07:30:46.269Z,101.57
2019-02-11T07:33:16.738Z,104.57
2019-02-11T07:35:47.274Z,104.73
2019-02-11T07:38:17.754Z,112.60
2019-02-11T07:40:48.310Z,120.27
2019-02-11T07:43:22.215Z,123.87
2019-02-11T07:46:11.586Z,114.53
2019-02-11T07:48:42.074Z,122.63
2019-02-11T07:51:12.542Z,126.80
2019-02-11T07:53:43.045Z,124.83
2019-02-11T07:56:13.532Z,126.07
2019-02-11T07:58:44.001Z,122.97
2019-02-11T08:01:14.527Z,127.67
2019-02-11T08:03:45.054Z,139.13
2019-02-11T08:06:15.545Z,126.40
2019-02-11T08:08:46.647Z,116.70
2019-02-11T08:11:17.163Z,117.60
2019-02-11T08:13:47.630Z,105.93
2019-02-11T08:16:18.115Z,96.73
2019-02-11T08:18:48.622Z,97.20
2019-02-11T08:21:19.121Z,94.90
2019-02-11T08:23:49.601Z,88.80
2019-02-11T08:26:20.093Z,87.40
2019-02-11T08:28:50.580Z,81.70
2019-02-11T08:31:21.205Z,98.27
2019-02-11T08:33:51.859Z,93.33
2019-02-11T08:36:22.376Z,80.07
2019-02-11T08:38:52.906Z,69.70
2019-02-11T08:41:23.415Z,64.57
2019-02-11T08:43:54.457Z,75.97
2019-02-11T08:46:25.022Z,71.00
2019-02-11T08:48:55.598Z,60.00
2019-02-11T08:51:26.248Z,64.90
2019-02-11T08:53:56.707Z,60.77
2019-02-11T08:56:27.211Z,54.27
2019-02-11T08:58:57.848Z,59.33
2019-02-11T09:01:28.407Z,58.80
2019-02-11T09:03:58.913Z,61.63
2019-02-11T09:06:29.374Z,68.77
2019-02-11T09:09:00.122Z,57.23
2019-02-11T09:11:30.585Z,49.80
2019-02-11T09:14:01.108Z,59.30
2019-02-11T09:16:31.822Z,74.50
2019-02-11T09:19:02.297Z,56.90
2019-02-11T09:21:32.798Z,65.63
2019-02-11T09:24:03.310Z,56.00
2019-02-11T09:26:33.874Z,62.23
2019-02-11T09:29:04.356Z,62.13
2019-02-11T09:31:34.832Z,54.43
2019-02-11T09:34:05.369Z,43.57
2019-02-11T09:36:36.492Z,48.87
2019-02-11T09:39:09.193Z,51.13
2019-02-11T09:41:40.015Z,47.37
2019-02-11T09:44:12.198Z,42.63
2019-02-11T09:46:43.461Z,47.63
2019-02-11T09:49:14.210Z,45.53
2019-02-11T09:51:47.436Z,54.93
2019-02-11T09:54:17.968Z,54.87
2019-02-11T09:56:48.587Z,56.23
2019-02-11T09:59:19.146Z,49.77
2019-02-11T10:01:49.664Z,55.10
2019-02-11T10:04:20.130Z,51.63
2019-02-11T10:06:50.750Z,56.70
2019-02-11T10:09:21.305Z,54.90
2019-02-11T10:11:51.785Z,57.50
2019-02-11T10:14:22.293Z,55.13
2019-02-11T10:16:52.761Z,58.83
2019-02-11T10:19:23.271Z,61.13
2019-02-11T10:21:53.768Z,58.40
2019-02-11T10:24:24.246Z,53.70
2019-02-11T10:26:54.753Z,50.20
2019-02-11T10:29:25.218Z,57.80
2019-02-11T10:31:55.750Z,63.20
2019-02-11T10:34:26.274Z,63.23
2019-02-11T10:36:56.849Z,62.43
2019-02-11T10:39:27.359Z,59.93
2019-02-11T10:41:57.836Z,61.20
2019-02-11T10:44:28.450Z,57.13
2019-02-11T10:46:59.052Z,55.63
2019-02-11T10:49:29.534Z,58.93
2019-02-11T10:52:00.351Z,56.47
2019-02-11T10:54:31.005Z,57.30
2019-02-11T10:57:01.687Z,53.77
2019-02-11T10:59:32.366Z,48.93
2019-02-11T11:02:02.880Z,46.90
2019-02-11T11:04:33.496Z,51.93
2019-02-11T11:07:04.145Z,52.70
2019-02-11T11:09:34.853Z,51.10
2019-02-11T11:12:05.681Z,48.67
2019-02-11T11:14:36.186Z,50.03
2019-02-11T11:17:08.243Z,66.20
2019-02-11T11:19:38.765Z,45.27
2019-02-11T11:22:09.863Z,43.23
2019-02-11T11:24:40.318Z,43.50
2019-02-11T11:27:10.823Z,43.53
2019-02-11T11:29:41.351Z,40.30
2019-02-11T11:32:11.820Z,40.23
2019-02-11T11:34:42.617Z,42.27
2019-02-11T11:37:13.459Z,40.63
2019-02-11T11:39:44.098Z,39.53
2019-02-11T11:42:14.619Z,39.57
2019-02-11T11:44:45.097Z,42.63
2019-02-11T11:47:15.818Z,40.90
2019-02-11T11:49:46.426Z,41.43
2019-02-11T11:52:17.060Z,40.67
2019-02-11T11:54:47.798Z,38.37
2019-02-11T11:57:18.334Z,43.43
2019-02-11T11:59:51.196Z,54.63
2019-02-11T12:02:21.733Z,63.47
2019-02-11T12:04:52.277Z,38.77
2019-02-11T12:07:28.615Z,42.43
2019-02-11T12:10:04.788Z,36.53
2019-02-11T12:12:37.554Z,36.27
2019-02-11T12:15:09.351Z,34.07
2019-02-11T12:20:33.741Z,36.07
2019-02-11T12:23:04.818Z,38.00
2019-02-11T12:25:36.020Z,40.23
2019-02-11T12:28:06.819Z,36.47
2019-02-11T12:30:41.141Z,38.33
2019-02-11T12:33:12.393Z,39.40
2019-02-11T12:35:43.441Z,45.73
2019-02-11T12:38:14.298Z,37.33
2019-02-11T12:40:45.216Z,37.63
2019-02-11T12:43:16.344Z,37.10
2019-02-11T12:45:47.135Z,42.23
2019-02-11T12:48:18.073Z,41.27
2019-02-11T12:50:49.632Z,38.53
2019-02-11T12:53:20.189Z,38.67
2019-02-11T12:55:50.727Z,39.37
2019-02-11T12:58:21.228Z,36.70
2019-02-11T13:00:51.753Z,33.97
2019-02-11T13:03:22.249Z,34.70
2019-02-11T13:05:52.822Z,34.50
2019-02-11T13:08:23.406Z,34.33
2019-02-11T13:10:54.006Z,36.60
2019-02-11T13:13:24.496Z,37.93
2019-02-11T13:16:00.929Z,63.93
2019-02-11T13:18:27.497Z,34.63
2019-02-11T13:20:58.167Z,37.90
2019-02-11T13:23:28.700Z,35.87
2019-02-11T13:25:59.224Z,35.77
2019-02-11T13:28:29.699Z,33.90
2019-02-11T13:31:00.239Z,34.33
2019-02-11T13:33:30.792Z,34.30
2019-02-11T13:36:01.523Z,34.80
2019-02-11T13:38:32.056Z,36.43
2019-02-11T13:41:02.558Z,31.00
2019-02-11T13:43:33.202Z,32.60
2019-02-11T13:46:03.767Z,33.13
2019-02-11T13:48:34.800Z,30.93
2019-02-11T13:51:05.530Z,34.30
2019-02-11T13:53:36.141Z,31.80
2019-02-11T13:56:07.191Z,30.17
2019-02-11T13:58:37.891Z,33.30
2019-02-11T14:01:10.340Z,36.77
2019-02-11T14:03:41.183Z,38.20
2019-02-11T14:06:11.913Z,44.40
2019-02-11T14:08:42.465Z,42.97
2019-02-11T14:11:12.995Z,44.40
2019-02-11T14:14:00.694Z,37.27
2019-02-11T14:16:15.640Z,43.57
2019-02-11T14:18:46.283Z,44.30
2019-02-11T14:21:16.774Z,47.93
2019-02-11T14:23:47.444Z,42.27
2019-02-11T14:26:17.963Z,39.50
2019-02-11T14:28:49.685Z,42.03
2019-02-11T14:31:20.521Z,50.37
2019-02-11T14:33:51.056Z,54.00
2019-02-11T14:36:21.716Z,44.70
2019-02-11T14:38:52.258Z,52.93
2019-02-11T14:41:22.866Z,52.77
2019-02-11T14:43:53.386Z,55.33
2019-02-11T14:46:23.897Z,46.33
2019-02-11T14:48:54.413Z,49.07
2019-02-11T14:51:24.884Z,49.13
2019-02-11T14:53:55.416Z,52.47
2019-02-11T14:56:25.889Z,54.43
2019-02-11T14:58:56.847Z,52.67
2019-02-11T15:01:27.368Z,55.57
2019-02-11T15:03:57.894Z,63.27
2019-02-11T15:06:28.360Z,47.80
2019-02-11T15:08:58.865Z,47.23
2019-02-11T15:11:29.345Z,47.87
2019-02-11T15:13:59.863Z,51.73
2019-02-11T15:16:30.449Z,60.77
2019-02-11T15:19:00.965Z,88.43
2019-02-11T15:21:31.554Z,73.00
2019-02-11T15:24:02.065Z,80.57
2019-02-11T15:26:33.087Z,62.97
2019-02-11T15:29:03.598Z,78.80
2019-02-11T15:31:34.148Z,70.37
2019-02-11T15:34:04.657Z,67.07
2019-02-11T15:36:35.124Z,62.53
2019-02-11T15:39:06.357Z,84.23
2019-02-11T15:41:36.833Z,109.33
2019-02-11T15:44:07.313Z,71.90
2019-02-11T15:46:37.823Z,64.80
2019-02-11T15:49:08.304Z,59.47
2019-02-11T15:51:38.813Z,61.43
2019-02-11T15:54:09.330Z,55.90
2019-02-11T15:56:39.903Z,50.60
2019-02-11T15:59:10.377Z,57.73
2019-02-11T16:01:40.891Z,58.03
2019-02-11T16:04:12.237Z,67.10
2019-02-11T16:06:42.849Z,52.93
2019-02-11T16:09:13.566Z,58.27
2019-02-11T16:11:44.006Z,72.50
2019-02-11T16:14:14.505Z,70.43
2019-02-11T16:16:44.976Z,58.60
2019-02-11T16:19:15.489Z,61.33
2019-02-11T16:21:45.956Z,52.33
2019-02-11T16:24:16.472Z,50.13
2019-02-11T16:26:46.974Z,50.43
2019-02-11T16:29:17.482Z,50.00
2019-02-11T16:31:47.930Z,65.97
2019-02-11T16:34:18.428Z,53.90
2019-02-11T16:36:48.892Z,42.33
2019-02-11T16:39:19.349Z,49.27
2019-02-11T16:41:49.858Z,45.03
2019-02-11T16:44:20.324Z,44.83
2019-02-11T16:46:50.932Z,44.07
2019-02-11T16:49:21.396Z,60.20
2019-02-11T16:51:51.899Z,44.50
2019-02-11T16:54:22.401Z,45.10
2019-02-11T16:56:52.908Z,44.90
2019-02-11T16:59:23.393Z,53.77
2019-02-11T17:01:53.892Z,72.93
2019-02-11T17:04:24.355Z,70.80
2019-02-11T17:06:54.853Z,84.37
2019-02-11T17:09:25.352Z,77.67
2019-02-11T17:11:55.852Z,66.77
2019-02-11T17:14:26.318Z,73.13
2019-02-11T17:16:56.839Z,73.83
2019-02-11T17:19:27.314Z,72.13
2019-02-11T17:21:57.777Z,79.27
2019-02-11T17:24:28.285Z,83.13
2019-02-11T17:26:58.814Z,94.87
2019-02-11T17:29:29.430Z,81.37
2019-02-11T17:32:00.043Z,77.37
2019-02-11T17:34:30.561Z,78.90
2019-02-11T17:37:01.029Z,77.50
2019-02-11T17:39:31.486Z,78.00
2019-02-11T17:42:02.146Z,80.53
2019-02-11T17:44:32.617Z,80.93
2019-02-11T17:47:03.115Z,79.20
2019-02-11T17:49:33.678Z,82.17
2019-02-11T17:52:05.933Z,87.97
2019-02-11T17:54:36.394Z,80.43
2019-02-11T17:57:06.986Z,82.50
2019-02-11T17:59:37.540Z,81.53
2019-02-11T18:02:11.825Z,85.83
2019-02-11T18:04:42.356Z,77.27
2019-02-11T18:07:12.866Z,72.30
2019-02-11T18:09:43.347Z,72.77
2019-02-11T18:12:13.813Z,81.73
2019-02-11T18:14:44.316Z,77.17
2019-02-11T18:17:14.773Z,70.57
2019-02-11T18:19:45.277Z,60.50
2019-02-11T18:22:15.781Z,61.33
2019-02-11T18:24:46.244Z,69.20
2019-02-11T18:27:16.749Z,62.37
2019-02-11T18:29:47.217Z,62.23
2019-02-11T18:32:17.715Z,61.10
2019-02-11T18:34:48.164Z,63.77
2019-02-11T18:37:18.663Z,64.07
2019-02-11T18:39:49.162Z,69.40
2019-02-11T18:42:19.626Z,75.37
2019-02-11T18:44:50.132Z,68.13
2019-02-11T18:47:20.601Z,64.93
2019-02-11T18:49:51.104Z,69.13
2019-02-11T18:52:21.604Z,83.73
2019-02-11T18:54:52.055Z,79.17
2019-02-11T18:57:22.512Z,89.03
2019-02-11T18:59:53.038Z,89.60
2019-02-11T19:02:23.508Z,70.97
2019-02-11T19:04:53.971Z,71.90
2019-02-11T19:07:24.641Z,74.90
2019-02-11T19:09:55.099Z,73.37
2019-02-11T19:12:25.571Z,75.13
2019-02-11T19:14:56.026Z,79.50
2019-02-11T19:17:26.684Z,98.17
2019-02-11T19:19:57.106Z,85.70
2019-02-11T19:22:27.611Z,102.83
2019-02-11T19:24:58.087Z,87.33
2019-02-11T19:27:28.601Z,94.57
2019-02-11T19:29:59.084Z,93.60
2019-02-11T19:32:29.570Z,91.43
2019-02-11T19:35:00.090Z,85.83
2019-02-11T19:37:30.661Z,76.30
2019-02-11T19:40:01.141Z,74.03
2019-02-11T19:42:31.655Z,72.20
2019-02-11T19:45:02.167Z,68.57
2019-02-11T19:47:32.637Z,71.50
2019-02-11T19:50:03.108Z,80.13
2019-02-11T19:52:33.626Z,83.63
2019-02-11T19:55:04.255Z,77.13
2019-02-11T19:57:34.753Z,90.20
2019-02-11T20:00:05.996Z,94.60
2019-02-11T20:02:36.551Z,100.97
2019-02-11T20:05:07.673Z,94.53
2019-02-11T20:07:38.270Z,93.90
2019-02-11T20:10:10.644Z,90.80
2019-02-11T20:12:41.102Z,94.23
2019-02-11T20:15:14.032Z,85.50
2019-02-11T20:17:44.493Z,79.87
2019-02-11T20:20:17.183Z,85.30
2019-02-11T20:22:47.787Z,77.57
2019-02-11T20:25:18.241Z,81.83
2019-02-11T20:27:48.853Z,83.83
2019-02-11T20:30:21.482Z,83.77
2019-02-11T20:32:51.981Z,85.67
2019-02-11T20:35:22.431Z,89.10
2019-02-11T20:37:53.028Z,87.23
2019-02-11T20:40:24.144Z,96.17
2019-02-11T20:42:54.636Z,92.50
2019-02-11T20:45:26.604Z,91.77
2019-02-11T20:47:57.101Z,91.07
2019-02-11T20:50:27.706Z,92.77
2019-02-11T20:52:58.225Z,91.73
2019-02-11T20:55:28.691Z,94.03
2019-02-11T20:57:59.373Z,93.77
2019-02-11T21:00:29.960Z,94.87
2019-02-11T21:03:08.166Z,97.43
2019-02-11T21:05:32.622Z,97.27
2019-02-11T21:08:03.120Z,93.80
2019-02-11T21:10:33.576Z,93.77
2019-02-11T21:13:04.035Z,104.00
2019-02-11T21:15:34.533Z,97.57
2019-02-11T21:18:05.135Z,96.73
2019-02-11T21:20:37.390Z,91.07
2019-02-11T21:23:09.712Z,89.63
2019-02-11T21:25:40.217Z,90.57
2019-02-11T21:28:10.675Z,93.13
2019-02-11T21:30:41.167Z,92.33
2019-02-11T21:33:11.621Z,92.40
2019-02-11T21:35:42.139Z,91.67
2019-02-11T21:38:12.574Z,90.33
2019-02-11T21:40:43.102Z,86.33
2019-02-11T21:43:13.596Z,84.17
2019-02-11T21:45:44.060Z,85.43
2019-02-11T21:48:14.574Z,83.40
2019-02-11T21:50:45.014Z,86.33
2019-02-11T21:53:15.513Z,91.73
2019-02-11T21:55:46.009Z,83.63
2019-02-11T21:58:16.465Z,87.53
2019-02-11T22:00:46.961Z,79.57
2019-02-11T22:03:17.412Z,88.77
2019-02-11T22:05:47.911Z,85.00
2019-02-11T22:08:18.372Z,85.40
2019-02-11T22:10:48.873Z,81.33
2019-02-11T22:13:19.340Z,86.33
2019-02-11T22:15:49.842Z,80.17
2019-02-11T22:18:20.400Z,88.67
2019-02-11T22:20:50.909Z,80.40
2019-02-11T22:23:21.470Z,83.53
2019-02-11T22:25:51.973Z,85.07
2019-02-11T22:28:22.480Z,76.90
2019-02-11T22:30:52.936Z,87.13
2019-02-11T22:33:23.437Z,79.23
2019-02-11T22:35:53.921Z,73.90
2019-02-11T22:38:24.499Z,82.63
2019-02-11T22:40:54.951Z,82.33
2019-02-11T22:43:25.443Z,82.43
2019-02-11T22:45:55.949Z,80.83
2019-02-11T22:48:26.392Z,80.00
2019-02-11T22:50:56.855Z,77.07
2019-02-11T22:53:27.352Z,74.67
2019-02-11T22:55:57.828Z,86.00
2019-02-11T22:58:28.333Z,89.87
2019-02-11T23:01:04.892Z,78.07
2019-02-11T23:03:36.473Z,78.53
2019-02-11T23:06:07.204Z,83.97
2019-02-11T23:08:37.658Z,84.40
2019-02-11T23:11:08.151Z,83.50
2019-02-11T23:13:38.613Z,83.40
2019-02-11T23:16:09.108Z,80.03
2019-02-11T23:18:39.576Z,85.27
2019-02-11T23:21:10.025Z,83.13
2019-02-11T23:23:40.528Z,84.57
2019-02-11T23:26:10.977Z,86.53
2019-02-11T23:28:41.432Z,91.07
2019-02-11T23:31:11.929Z,103.03
2019-02-11T23:33:42.380Z,97.57
2019-02-11T23:36:12.881Z,102.23
2019-02-11T23:38:43.342Z,102.90
2019-02-11T23:41:13.909Z,99.50
2019-02-11T23:43:44.422Z,95.10
2019-02-11T23:46:14.874Z,90.67
2019-02-11T23:48:45.371Z,92.03
2019-02-11T23:51:15.830Z,95.00
2019-02-11T23:53:46.328Z,95.87
2019-02-11T23:56:16.822Z,94.23
2019-02-11T23:58:47.270Z,97.00
